createdAt,value
2018-06-10T00:00:51.386Z,7.43
2018-06-10T00:03:21.041Z,8.27
2018-06-10T00:05:50.650Z,8.07
2018-06-10T00:08:20.363Z,7.90
2018-06-10T00:10:53.293Z,7.53
2018-06-10T00:13:23.005Z,7.50
2018-06-10T00:15:52.725Z,7.67
2018-06-10T00:18:22.426Z,7.43
2018-06-10T00:20:52.134Z,8.50
2018-06-10T00:23:21.888Z,9.67
2018-06-10T00:25:51.543Z,9.93
2018-06-10T00:28:26.520Z,9.57
2018-06-10T00:30:56.236Z,9.77
2018-06-10T00:33:25.903Z,9.43
2018-06-10T00:35:55.596Z,9.70
2018-06-10T00:38:25.222Z,9.77
2018-06-10T00:40:54.967Z,9.83
2018-06-10T00:43:24.760Z,9.83
2018-06-10T00:45:54.404Z,9.37
2018-06-10T00:48:24.189Z,9.37
2018-06-10T00:50:53.930Z,9.30
2018-06-10T00:53:23.512Z,10.07
2018-06-10T00:55:53.171Z,10.47
2018-06-10T00:58:22.959Z,11.27
2018-06-10T01:00:52.652Z,11.07
2018-06-10T01:03:22.301Z,12.03
2018-06-10T01:05:51.938Z,11.77
2018-06-10T01:08:21.626Z,11.33
2018-06-10T01:10:51.351Z,11.53
2018-06-10T01:13:20.971Z,12.13
2018-06-10T01:15:50.682Z,12.30
2018-06-10T01:18:20.433Z,10.90
2018-06-10T01:20:50.168Z,11.37
2018-06-10T01:23:19.898Z,11.03
2018-06-10T01:25:49.737Z,11.57
2018-06-10T01:28:19.456Z,11.67
2018-06-10T01:30:49.123Z,11.47
2018-06-10T01:33:18.812Z,11.13
2018-06-10T01:35:48.481Z,11.47
2018-06-10T01:38:18.274Z,11.77
2018-06-10T01:40:47.943Z,12.37
2018-06-10T01:43:17.550Z,12.40
2018-06-10T01:45:47.316Z,12.63
2018-06-10T01:48:17.059Z,12.63
2018-06-10T01:50:46.774Z,12.77
2018-06-10T01:53:16.413Z,11.60
2018-06-10T01:55:46.090Z,11.83
2018-06-10T01:58:15.836Z,12.53
2018-06-10T02:00:45.578Z,12.37
2018-06-10T02:03:15.274Z,11.63
2018-06-10T02:05:44.944Z,12.17
2018-06-10T02:08:14.540Z,12.07
2018-06-10T02:10:44.254Z,11.33
2018-06-10T02:13:14.020Z,11.63
2018-06-10T02:15:43.749Z,11.37
2018-06-10T02:18:13.556Z,11.47
2018-06-10T02:20:43.222Z,11.30
2018-06-10T02:23:12.902Z,10.90
2018-06-10T02:25:42.581Z,11.43
2018-06-10T02:28:12.563Z,12.20
2018-06-10T02:30:42.266Z,11.60
2018-06-10T02:33:11.964Z,11.03
2018-06-10T02:35:41.741Z,12.50
2018-06-10T02:38:11.536Z,12.47
2018-06-10T02:40:41.282Z,12.57
2018-06-10T02:43:10.946Z,12.63
2018-06-10T02:45:40.651Z,13.30
2018-06-10T02:48:09.684Z,13.53
2018-06-10T02:50:39.424Z,12.10
2018-06-10T02:53:09.208Z,13.03
2018-06-10T02:55:38.956Z,12.77
2018-06-10T02:58:08.678Z,13.63
2018-06-10T03:00:38.340Z,12.97
2018-06-10T03:03:08.018Z,12.83
2018-06-10T03:05:37.825Z,12.90
2018-06-10T03:08:07.694Z,12.67
2018-06-10T03:10:37.378Z,12.37
2018-06-10T03:13:07.103Z,12.27
2018-06-10T03:15:36.743Z,13.07
2018-06-10T03:18:06.456Z,12.73
2018-06-10T03:20:36.226Z,13.43
2018-06-10T03:23:05.962Z,13.47
2018-06-10T03:25:35.787Z,13.43
2018-06-10T03:28:05.561Z,13.40
2018-06-10T03:30:35.224Z,12.37
2018-06-10T03:33:04.880Z,13.33
2018-06-10T03:35:34.575Z,13.47
2018-06-10T03:38:04.353Z,13.37
2018-06-10T03:40:34.021Z,12.57
2018-06-10T03:43:03.747Z,12.83
2018-06-10T03:45:33.456Z,12.97
2018-06-10T03:48:03.330Z,13.67
2018-06-10T03:50:33.092Z,14.60
2018-06-10T03:53:02.800Z,14.27
2018-06-10T03:55:32.483Z,13.10
2018-06-10T03:58:02.341Z,13.23
2018-06-10T04:00:32.118Z,12.30
2018-06-10T04:03:01.894Z,12.10
2018-06-10T04:05:31.586Z,12.57
2018-06-10T04:08:00.616Z,13.43
2018-06-10T04:10:30.348Z,12.77
2018-06-10T04:13:00.015Z,12.17
2018-06-10T04:15:29.705Z,11.37
2018-06-10T04:17:59.491Z,11.00
2018-06-10T04:20:29.171Z,11.20
2018-06-10T04:22:58.851Z,11.00
2018-06-10T04:25:28.570Z,11.00
2018-06-10T04:27:58.288Z,12.30
2018-06-10T04:30:27.944Z,12.27
2018-06-10T04:32:57.607Z,10.80
2018-06-10T04:35:27.311Z,11.73
2018-06-10T04:37:57.083Z,11.13
2018-06-10T04:40:26.790Z,12.07
2018-06-10T04:42:56.509Z,12.33
2018-06-10T04:45:26.114Z,11.13
2018-06-10T04:47:55.803Z,11.40
2018-06-10T04:50:25.463Z,10.67
2018-06-10T04:52:55.132Z,9.80
2018-06-10T04:55:24.868Z,10.90
2018-06-10T04:57:54.564Z,10.77
2018-06-10T05:00:24.210Z,10.20
2018-06-10T05:02:53.924Z,10.80
2018-06-10T05:05:23.599Z,9.83
2018-06-10T05:07:53.231Z,10.03
2018-06-10T05:10:22.853Z,11.10
2018-06-10T05:12:52.543Z,11.33
2018-06-10T05:15:22.179Z,11.70
2018-06-10T05:17:51.827Z,12.83
2018-06-10T05:20:21.544Z,11.07
2018-06-10T05:22:51.239Z,10.33
2018-06-10T05:25:20.953Z,10.37
2018-06-10T05:27:50.709Z,10.10
2018-06-10T05:30:20.453Z,9.53
2018-06-10T05:32:50.097Z,9.50
2018-06-10T05:35:19.790Z,9.27
2018-06-10T05:37:49.471Z,8.90
2018-06-10T05:40:19.197Z,8.80
2018-06-10T05:42:48.887Z,9.27
2018-06-10T05:45:18.562Z,9.33
2018-06-10T05:47:48.254Z,8.53
2018-06-10T05:50:17.902Z,9.13
2018-06-10T05:52:47.555Z,9.07
2018-06-10T05:55:17.220Z,9.47
2018-06-10T05:57:47.066Z,8.87
2018-06-10T06:00:16.746Z,8.47
2018-06-10T06:02:46.462Z,7.60
2018-06-10T06:05:16.167Z,8.83
2018-06-10T06:07:45.814Z,8.97
2018-06-10T06:10:15.515Z,9.23
2018-06-10T06:12:45.202Z,8.77
2018-06-10T06:15:14.946Z,8.13
2018-06-10T06:17:45.676Z,9.10
2018-06-10T06:20:15.412Z,8.60
2018-06-10T06:22:45.094Z,8.40
2018-06-10T06:25:14.923Z,8.03
2018-06-10T06:27:44.607Z,9.27
2018-06-10T06:30:14.366Z,9.23
2018-06-10T06:32:44.052Z,10.00
2018-06-10T06:35:13.732Z,9.50
2018-06-10T06:37:43.414Z,9.90
2018-06-10T06:40:13.117Z,9.47
2018-06-10T06:42:42.844Z,10.20
2018-06-10T06:45:12.582Z,10.45
2018-06-10T06:47:42.276Z,9.23
2018-06-10T06:50:11.969Z,9.77
2018-06-10T06:52:41.639Z,8.97
2018-06-10T06:55:11.365Z,10.00
2018-06-10T06:57:41.116Z,9.10
2018-06-10T07:00:10.863Z,9.40
2018-06-10T07:02:40.528Z,9.23
2018-06-10T07:05:10.311Z,7.72
2018-06-10T07:07:40.038Z,8.20
2018-06-10T07:10:09.784Z,9.28
2018-06-10T07:12:39.513Z,8.13
2018-06-10T07:15:09.230Z,8.90
2018-06-10T07:17:38.893Z,7.60
2018-06-10T07:20:08.653Z,7.73
2018-06-10T07:22:38.303Z,7.70
2018-06-10T07:25:08.039Z,8.13
2018-06-10T07:27:37.809Z,7.90
2018-06-10T07:30:07.469Z,6.75
2018-06-10T07:32:37.180Z,7.25
2018-06-10T07:35:07.020Z,6.80
2018-06-10T07:37:36.745Z,7.12
2018-06-10T07:40:06.528Z,7.33
2018-06-10T07:42:36.364Z,6.77
2018-06-10T07:45:06.158Z,7.23
2018-06-10T07:47:35.897Z,6.90
2018-06-10T07:50:05.521Z,7.63
2018-06-10T07:52:35.163Z,6.50
2018-06-10T07:55:04.894Z,6.13
2018-06-10T07:57:34.619Z,6.30
2018-06-10T08:00:04.705Z,6.97
2018-06-10T08:02:37.308Z,7.00
2018-06-10T08:05:06.992Z,6.60
2018-06-10T08:07:36.759Z,6.27
2018-06-10T08:10:06.655Z,5.77
2018-06-10T08:12:36.428Z,6.00
2018-06-10T08:15:06.142Z,5.70
2018-06-10T08:17:35.825Z,5.93
2018-06-10T08:20:05.605Z,6.30
2018-06-10T08:22:35.357Z,6.40
2018-06-10T08:25:05.120Z,5.63
2018-06-10T08:27:34.889Z,6.37
2018-06-10T08:30:04.976Z,5.77
2018-06-10T08:32:34.726Z,5.33
2018-06-10T08:35:04.469Z,5.80
2018-06-10T08:37:34.176Z,6.55
2018-06-10T08:40:03.968Z,6.23
2018-06-10T08:42:33.669Z,6.53
2018-06-10T08:45:03.379Z,7.17
2018-06-10T08:47:33.073Z,6.93
2018-06-10T08:50:02.890Z,6.40
2018-06-10T08:52:32.604Z,6.43
2018-06-10T08:55:02.314Z,7.27
2018-06-10T08:57:32.290Z,6.87
2018-06-10T09:00:01.956Z,6.87
2018-06-10T09:02:31.664Z,6.50
2018-06-10T09:05:01.313Z,6.70
2018-06-10T09:07:30.982Z,6.57
2018-06-10T09:10:00.685Z,6.40
2018-06-10T09:12:30.348Z,6.33
2018-06-10T09:15:00.074Z,6.07
2018-06-10T09:17:29.764Z,6.03
2018-06-10T09:19:59.537Z,6.53
2018-06-10T09:22:29.189Z,6.60
2018-06-10T09:24:58.843Z,6.40
2018-06-10T09:27:28.574Z,6.63
2018-06-10T09:29:58.252Z,6.93
2018-06-10T09:32:27.948Z,7.17
2018-06-10T09:34:57.664Z,6.63
2018-06-10T09:37:27.421Z,6.90
2018-06-10T09:39:57.166Z,6.87
2018-06-10T09:42:26.869Z,6.93
2018-06-10T09:44:56.575Z,6.75
2018-06-10T09:47:26.325Z,6.43
2018-06-10T09:49:56.072Z,6.27
2018-06-10T09:52:25.727Z,7.97
2018-06-10T09:54:55.438Z,7.58
2018-06-10T09:57:25.182Z,6.60
2018-06-10T09:59:54.910Z,7.58
2018-06-10T10:02:24.595Z,7.15
2018-06-10T10:04:54.307Z,7.60
2018-06-10T10:07:24.013Z,7.03
2018-06-10T10:09:53.717Z,6.28
2018-06-10T10:12:23.396Z,7.17
2018-06-10T10:14:53.126Z,6.65
2018-06-10T10:17:22.872Z,8.20
2018-06-10T10:19:52.558Z,7.30
2018-06-10T10:22:22.298Z,7.55
2018-06-10T10:24:51.964Z,7.90
2018-06-10T10:27:21.638Z,7.15
2018-06-10T10:29:51.370Z,7.55
2018-06-10T10:32:21.048Z,7.47
2018-06-10T10:34:50.704Z,8.33
2018-06-10T10:37:20.381Z,7.40
2018-06-10T10:39:50.075Z,7.60
2018-06-10T10:42:19.824Z,7.58
2018-06-10T10:44:49.559Z,6.62
2018-06-10T10:47:19.196Z,7.20
2018-06-10T10:49:48.916Z,6.80
2018-06-10T10:52:18.677Z,7.15
2018-06-10T10:54:48.599Z,8.38
2018-06-10T10:57:18.339Z,7.25
2018-06-10T10:59:48.071Z,6.33
2018-06-10T11:02:17.815Z,6.40
2018-06-10T11:04:47.599Z,6.05
2018-06-10T11:07:17.321Z,6.22
2018-06-10T11:09:46.981Z,6.30
2018-06-10T11:12:16.710Z,6.50
2018-06-10T11:14:46.503Z,5.87
2018-06-10T11:17:16.212Z,5.97
2018-06-10T11:19:45.854Z,6.25
2018-06-10T11:22:15.542Z,5.83
2018-06-10T11:24:45.249Z,5.72
2018-06-10T11:27:15.001Z,6.40
2018-06-10T11:29:44.734Z,7.00
2018-06-10T11:32:14.413Z,7.40
2018-06-10T11:34:44.136Z,6.28
2018-06-10T11:37:13.845Z,6.35
2018-06-10T11:39:43.480Z,7.30
2018-06-10T11:42:13.152Z,7.37
2018-06-10T11:44:42.898Z,6.90
2018-06-10T11:47:12.562Z,6.33
2018-06-10T11:49:42.307Z,6.87
2018-06-10T11:52:12.052Z,7.08
2018-06-10T11:54:41.726Z,6.92
2018-06-10T11:57:11.359Z,6.20
2018-06-10T11:59:41.091Z,5.87
2018-06-10T12:02:10.793Z,6.47
2018-06-10T12:04:40.510Z,6.33
2018-06-10T12:07:10.210Z,6.10
2018-06-10T12:09:39.899Z,5.65
2018-06-10T12:12:09.620Z,5.28
2018-06-10T12:14:39.303Z,5.55
2018-06-10T12:17:09.048Z,5.50
2018-06-10T12:19:38.785Z,5.72
2018-06-10T12:22:08.453Z,5.72
2018-06-10T12:24:38.120Z,5.30
2018-06-10T12:27:07.799Z,5.47
2018-06-10T12:29:37.529Z,4.97
2018-06-10T12:32:07.280Z,6.10
2018-06-10T12:34:37.007Z,5.60
2018-06-10T12:37:06.698Z,5.20
2018-06-10T12:39:36.360Z,5.00
2018-06-10T12:42:06.151Z,5.60
2018-06-10T12:44:35.782Z,5.67
2018-06-10T12:47:05.753Z,4.95
2018-06-10T12:49:35.466Z,6.13
2018-06-10T12:52:05.354Z,5.10
2018-06-10T12:54:35.024Z,6.10
2018-06-10T12:57:04.709Z,5.08
2018-06-10T12:59:34.356Z,4.97
2018-06-10T13:02:04.162Z,5.78
2018-06-10T13:04:33.810Z,5.97
2018-06-10T13:07:03.567Z,6.30
2018-06-10T13:09:32.621Z,6.35
2018-06-10T13:12:02.541Z,6.37
2018-06-10T13:14:32.236Z,5.15
2018-06-10T13:17:01.979Z,5.40
2018-06-10T13:19:31.703Z,6.03
2018-06-10T13:22:01.619Z,5.28
2018-06-10T13:24:31.297Z,5.47
2018-06-10T13:27:01.023Z,5.58
2018-06-10T13:29:30.756Z,4.90
2018-06-10T13:32:00.488Z,5.00
2018-06-10T13:34:30.228Z,5.78
2018-06-10T13:36:59.886Z,5.22
2018-06-10T13:39:28.888Z,5.03
2018-06-10T13:41:58.596Z,5.00
2018-06-10T13:44:28.312Z,6.13
2018-06-10T13:46:57.995Z,5.40
2018-06-10T13:49:27.768Z,6.17
2018-06-10T13:51:57.468Z,5.53
2018-06-10T13:54:27.244Z,5.00
2018-06-10T13:56:56.898Z,5.28
2018-06-10T13:59:26.552Z,5.40
2018-06-10T14:01:56.277Z,4.80
2018-06-10T14:04:26.032Z,4.67
2018-06-10T14:06:55.769Z,4.92
2018-06-10T14:09:25.588Z,5.62
2018-06-10T14:11:55.310Z,6.43
2018-06-10T14:14:24.981Z,6.30
2018-06-10T14:16:54.717Z,5.33
2018-06-10T14:19:24.401Z,5.17
2018-06-10T14:21:54.132Z,6.20
2018-06-10T14:24:23.811Z,5.03
2018-06-10T14:26:53.483Z,4.70
2018-06-10T14:29:23.176Z,5.47
2018-06-10T14:31:52.895Z,5.22
2018-06-10T14:34:22.617Z,6.53
2018-06-10T14:36:52.447Z,5.97
2018-06-10T14:39:22.134Z,5.47
2018-06-10T14:41:51.907Z,5.70
2018-06-10T14:44:21.564Z,5.00
2018-06-10T14:46:51.331Z,5.50
2018-06-10T14:49:20.957Z,4.87
2018-06-10T14:51:53.450Z,5.60
2018-06-10T14:54:23.210Z,5.30
2018-06-10T14:56:52.874Z,5.60
2018-06-10T14:59:22.587Z,5.62
2018-06-10T15:01:52.288Z,4.00
2018-06-10T15:04:21.321Z,5.30
2018-06-10T15:06:51.022Z,5.67
2018-06-10T15:09:20.746Z,5.22
2018-06-10T15:11:50.375Z,4.55
2018-06-10T15:14:20.053Z,5.22
2018-06-10T15:16:49.736Z,4.75
2018-06-10T15:19:19.437Z,5.70
2018-06-10T15:21:49.236Z,6.05
2018-06-10T15:24:18.971Z,5.45
2018-06-10T15:26:48.662Z,6.22
2018-06-10T15:29:18.406Z,4.87
2018-06-10T15:31:48.129Z,5.75
2018-06-10T15:34:17.834Z,5.78
2018-06-10T15:36:47.647Z,5.50
2018-06-10T15:39:17.337Z,5.20
2018-06-10T15:41:46.958Z,4.67
2018-06-10T15:44:16.661Z,5.47
2018-06-10T15:46:46.395Z,5.40
2018-06-10T15:49:16.104Z,4.95
2018-06-10T15:51:45.766Z,4.42
2018-06-10T15:54:15.513Z,5.67
2018-06-10T15:56:45.278Z,5.67
2018-06-10T15:59:15.042Z,5.30
2018-06-10T16:01:44.753Z,5.92
2018-06-10T16:04:14.484Z,6.03
2018-06-10T16:06:44.215Z,5.12
2018-06-10T16:09:13.979Z,4.60
2018-06-10T16:11:43.620Z,5.12
2018-06-10T16:14:13.293Z,5.97
2018-06-10T16:16:43.082Z,4.62
2018-06-10T16:19:12.749Z,4.97
2018-06-10T16:21:42.477Z,4.92
2018-06-10T16:24:12.138Z,4.53
2018-06-10T16:26:41.853Z,5.80
2018-06-10T16:29:11.492Z,6.00
2018-06-10T16:31:41.199Z,5.15
2018-06-10T16:34:10.932Z,5.15
2018-06-10T16:36:40.596Z,5.85
2018-06-10T16:39:10.576Z,5.12
2018-06-10T16:41:40.280Z,5.37
2018-06-10T16:44:09.942Z,5.40
2018-06-10T16:46:39.680Z,5.55
2018-06-10T16:49:09.385Z,5.30
2018-06-10T16:51:39.068Z,5.45
2018-06-10T16:54:08.693Z,6.45
2018-06-10T16:56:38.406Z,6.70
2018-06-10T16:59:08.150Z,7.67
2018-06-10T17:01:37.858Z,7.05
2018-06-10T17:04:07.633Z,8.18
2018-06-10T17:06:37.351Z,9.65
2018-06-10T17:09:09.264Z,9.55
2018-06-10T17:11:38.309Z,9.60
2018-06-10T17:14:08.003Z,9.78
2018-06-10T17:16:38.486Z,9.20
2018-06-10T17:19:08.223Z,8.33
2018-06-10T17:21:37.957Z,8.08
2018-06-10T17:24:07.711Z,8.85
2018-06-10T17:26:37.418Z,9.03
2018-06-10T17:29:07.131Z,10.28
2018-06-10T17:31:36.880Z,10.58
2018-06-10T17:34:06.691Z,10.40
2018-06-10T17:36:36.396Z,12.95
2018-06-10T17:39:08.283Z,10.63
2018-06-10T17:41:37.998Z,10.20
2018-06-10T17:44:07.665Z,10.32
2018-06-10T17:46:37.312Z,10.32
2018-06-10T17:49:07.022Z,10.80
2018-06-10T17:51:36.715Z,10.13
2018-06-10T17:54:06.445Z,9.85
2018-06-10T17:56:36.188Z,10.30
2018-06-10T17:59:05.851Z,9.85
2018-06-10T18:01:35.573Z,10.50
2018-06-10T18:04:05.355Z,10.28
2018-06-10T18:06:34.966Z,10.50
2018-06-10T18:09:06.621Z,10.25
2018-06-10T18:11:36.396Z,9.35
2018-06-10T18:14:06.349Z,10.25
2018-06-10T18:16:36.024Z,11.83
2018-06-10T18:19:05.940Z,11.93
2018-06-10T18:21:35.638Z,9.23
2018-06-10T18:24:07.087Z,8.97
2018-06-10T18:26:36.933Z,10.28
2018-06-10T18:29:06.832Z,9.63
2018-06-10T18:31:36.561Z,10.35
2018-06-10T18:34:06.357Z,10.55
2018-06-10T18:36:36.387Z,10.55
2018-06-10T18:39:08.897Z,10.82
2018-06-10T18:41:38.721Z,10.90
2018-06-10T18:44:08.520Z,11.68
2018-06-10T18:46:38.411Z,12.27
2018-06-10T18:49:08.848Z,12.90
2018-06-10T18:51:38.636Z,12.17
2018-06-10T18:54:08.588Z,11.77
2018-06-10T18:56:38.604Z,11.22
2018-06-10T18:59:08.429Z,10.77
2018-06-10T19:01:38.115Z,10.57
2018-06-10T19:04:07.923Z,10.43
2018-06-10T19:06:37.601Z,11.40
2018-06-10T19:09:09.621Z,10.17
2018-06-10T19:11:39.365Z,10.03
2018-06-10T19:14:09.211Z,10.20
2018-06-10T19:16:39.058Z,10.73
2018-06-10T19:19:08.808Z,9.30
2018-06-10T19:21:38.569Z,10.60
2018-06-10T19:24:08.444Z,9.63
2018-06-10T19:26:38.155Z,9.83
2018-06-10T19:29:07.716Z,9.03
2018-06-10T19:31:37.360Z,9.17
2018-06-10T19:34:07.186Z,8.70
2018-06-10T19:36:36.868Z,10.03
2018-06-10T19:39:08.618Z,14.70
2018-06-10T19:41:38.398Z,14.03
2018-06-10T19:44:08.090Z,13.37
2018-06-10T19:46:37.818Z,14.37
2018-06-10T19:49:07.553Z,13.27
2018-06-10T19:54:01.047Z,13.17
2018-06-10T19:56:30.735Z,12.40
2018-06-10T19:59:00.453Z,13.43
2018-06-10T20:01:30.159Z,12.63
2018-06-10T20:03:59.946Z,13.00
2018-06-10T20:06:29.753Z,13.07
2018-06-10T20:08:59.498Z,12.97
2018-06-10T20:11:29.257Z,13.10
2018-06-10T20:13:58.924Z,12.43
2018-06-10T20:16:28.693Z,12.97
2018-06-10T20:18:58.333Z,13.33
2018-06-10T20:21:27.926Z,12.80
2018-06-10T20:23:57.608Z,13.00
2018-06-10T20:26:27.248Z,13.23
2018-06-10T20:28:56.943Z,13.80
2018-06-10T20:31:26.649Z,13.47
2018-06-10T20:33:56.359Z,14.60
2018-06-10T20:36:26.002Z,18.60
2018-06-10T20:38:55.706Z,19.03
2018-06-10T20:41:25.398Z,18.27
2018-06-10T20:43:55.091Z,18.07
2018-06-10T20:46:24.833Z,19.77
2018-06-10T20:48:54.511Z,18.47
2018-06-10T20:51:24.213Z,18.40
2018-06-10T20:53:54.015Z,16.23
2018-06-10T20:56:23.663Z,16.17
2018-06-10T20:58:53.340Z,13.90
2018-06-10T21:01:22.978Z,14.93
2018-06-10T21:03:52.663Z,14.47
2018-06-10T21:06:22.366Z,14.27
2018-06-10T21:08:52.063Z,14.50
2018-06-10T21:11:21.718Z,13.97
2018-06-10T21:13:51.383Z,14.87
2018-06-10T21:16:21.058Z,14.77
2018-06-10T21:18:50.770Z,13.57
2018-06-10T21:21:20.524Z,12.67
2018-06-10T21:23:50.257Z,13.47
2018-06-10T21:26:19.965Z,12.57
2018-06-10T21:28:49.700Z,12.07
2018-06-10T21:31:19.486Z,12.00
2018-06-10T21:33:49.295Z,11.50
2018-06-10T21:36:19.015Z,12.17
2018-06-10T21:38:48.785Z,11.70
2018-06-10T21:41:18.510Z,11.03
2018-06-10T21:43:48.179Z,10.27
2018-06-10T21:46:17.872Z,10.37
2018-06-10T21:48:47.578Z,9.93
2018-06-10T21:51:17.317Z,9.27
2018-06-10T21:53:46.945Z,9.17
2018-06-10T21:56:16.677Z,9.30
2018-06-10T21:58:46.312Z,10.00
2018-06-10T22:01:15.965Z,10.60
2018-06-10T22:03:45.689Z,9.77
2018-06-10T22:06:15.434Z,9.97
2018-06-10T22:08:45.196Z,9.30
2018-06-10T22:11:14.953Z,10.23
2018-06-10T22:13:44.680Z,10.87
2018-06-10T22:16:14.482Z,11.33
2018-06-10T22:18:44.133Z,11.27
2018-06-10T22:21:13.871Z,12.83
2018-06-10T22:23:43.561Z,13.40
2018-06-10T22:26:13.300Z,13.00
2018-06-10T22:28:43.039Z,14.13
2018-06-10T22:31:12.739Z,13.13
2018-06-10T22:33:42.421Z,13.73
2018-06-10T22:36:12.138Z,13.97
2018-06-10T22:38:41.809Z,15.23
2018-06-10T22:41:11.499Z,16.20
2018-06-10T22:43:41.233Z,15.83
2018-06-10T22:46:10.955Z,15.57
2018-06-10T22:48:40.642Z,17.00
2018-06-10T22:51:10.352Z,17.27
2018-06-10T22:54:10.111Z,17.53
2018-06-10T22:56:39.788Z,17.37
2018-06-10T22:59:09.472Z,16.07
2018-06-10T23:01:39.235Z,15.03
2018-06-10T23:04:08.957Z,14.17
2018-06-10T23:06:38.651Z,14.13
2018-06-10T23:09:08.878Z,13.63
2018-06-10T23:11:38.607Z,13.90
2018-06-10T23:14:08.250Z,14.23
2018-06-10T23:16:37.854Z,12.50
2018-06-10T23:19:07.460Z,13.73
2018-06-10T23:21:37.158Z,12.77
2018-06-10T23:24:06.860Z,14.20
2018-06-10T23:26:36.527Z,14.53
2018-06-10T23:29:06.232Z,14.03
2018-06-10T23:31:35.956Z,13.93
2018-06-10T23:34:05.720Z,13.97
2018-06-10T23:36:35.461Z,15.00
2018-06-10T23:39:06.785Z,16.00
2018-06-10T23:41:36.704Z,14.80
2018-06-10T23:44:06.391Z,15.77
2018-06-10T23:46:36.119Z,16.37
2018-06-10T23:49:05.797Z,14.13
2018-06-10T23:51:35.523Z,13.40
2018-06-10T23:54:05.278Z,13.83
2018-06-10T23:56:35.002Z,14.20
2018-06-10T23:59:04.710Z,14.40
